LESA/SLM METAR and TAF weather

Enter ICAO airport designator
Station Type Date Time Source
LESA METAR 2019/04/24 22:00 UTC NOAA

LESA 242200Z AUTO 25019KT 220V280 4500 -RA BR FEW029 BKN040 08/06 Q1003


Station Type Date Time Source
LESA Decoded METAR 2019/04/24 22:00 UTC NOAA

Salamanca / Matacan, Spain (LESA) 40-57N 005-30W 795M
Apr 24, 2019 - 06:00 PM EDT / 2019.04.24 2200 UTC
Wind: from the WSW (250 degrees) at 22 MPH (19 KT) (direction variable):0
Visibility: 2 mile(s):0
Sky conditions: mostly cloudy
Weather: light rain; mist
Temperature: 46 F (8 C)
Dew Point: 42 F (6 C)
Relative Humidity: 87%
Pressure (altimeter): 29.62 in. Hg (1003 hPa)
ob: LESA 242200Z AUTO 25019KT 220V280 4500 -RA BR FEW029 BKN040 08/06 Q1003
cycle: 22

Station Type Date Time Source
LESA TAF 2019/04/24 18:27 UTC NOAA

TAF LESA 241700Z 2418/2518 23016KT 9999 SCT020 BKN045 TX11/2515Z TN04/2506Z
TEMPO 2418/2424 23020G30KT
TEMPO 2418/2419 23025G44KT
TEMPO 2418/2518 4000 RA BKN010 PROB40
TEMPO 2418/2422 3000 SHRA SCT030TCU
TEMPO 2508/2518 23028G38KT

Example: see airport list